בריסל, בלגיה

08:09 AM CET , נובמבר 29, 2014 (GMT +0100)
Berg | Change Station
CLOSE
Current Station
תחנות מטאורולוגיות אישיות
Location: Kampenhout, VLAAMS BRABANT
Elevation: 54 ft
Nearby Weather Stations

Elev 54 ft 50.93 °N, 4.53 °E | Updated 7 minutes ago

Clear
בהיר
36.1 ° F
Feels Like 36 ° F
צפ
0.0
רוח משתנה רוח from מז-צפ-מז
Gusts 1.0 מייל/שעה

היום
High -- | Low -- ° F
--% Chance of Precip.
אתמול
High -- | Low -- ° F
Precip. -- אינץ
8:19 AM 4:40 PM
לקראת מילוא, 48% visible
לחץ 29.89 אינץ
ראות -9999.0 מיילים
עננים
רוח צוננת 36 ° F
טמפ עיבוי 35 ° F
לחות 95%
גשם 0.00 אינץ
עומק השלג Not available.
UV 0.0 out of 12
Pollen Not available.
איכות האוויר Not available.
Flu Activity Not available.
SPECI EBBE 290703Z AUTO 09006KT 4300 NCD 02/01 Q1012 GRN

More Conditions Fewer Conditions

לחץ 29.89 אינץ
ראות -9999.0 מיילים
עננים
רוח צוננת 36 ° F
טמפ עיבוי 35 ° F
לחות 95%
גשם 0.00 אינץ
עומק השלג Not available.
UV 0.0 out of 12
Pollen Not available.
איכות האוויר Not available.
Flu Activity Not available.
SPECI EBBE 290703Z AUTO 09006KT 4300 NCD 02/01 Q1012 GRN

More Conditions Fewer Conditions

10-Day Weather Forecast

Almanac

אסטרונומיה

Nov. 29, 2014 Rise Set
Actual Time
Civil Twilight
Nautical Twilight
Astronomical Twilight
ירח
Length Of Visible Light
אורך היום
Tomorrow will be .
, % of the Moon is Illuminated

Today's Extremes

Country Highs Country Lows

Community

WunderPhotos

Upload Photos

1,774,432 photos uploaded!

WunderBlogs® & News

Nearby

איכות האוויר

  איכות האוויר אינדקס איכות האוויר חומר מזהם
Not available.

עומק שלג

Station Depth Elevation

Earthquake Activity

עיר Distance Mag. Time & Date
Minimum magnitude displayed is 2.5.

Coastal Water Temperatures

מקום טמפרטורה

Nearby Weather Stations